Terminal Aerodrome Forecast
Issued by NWS Jackson, MS

Home | Current Version | Previous Version | Text Only | Print | Product List | Glossary On
Versions: 1 2 3 4 5 6 7 8 9 10 11 12 13 14 15 16 17 18 19 20 21 22 23 24 25
000
FTUS44 KJAN 252300 RRA
TAFHBG
TAF
KHBG 252346Z 2600/2624 VRB03KT P6SM FEW050 SCT150
     FM260900 00000KT 4SM BR SCT009 SCT050
     FM261300 24005KT P6SM FEW030 SCT050=

USA.gov is the U.S. government's official web portal to all federal, state and local government web resources and services.